createdAt,value
2022-12-24T00:00:39.458Z,863.67
2022-12-24T00:03:06.261Z,861.65
2022-12-24T00:05:33.043Z,859.03
2022-12-24T00:07:59.736Z,864.10
2022-12-24T00:10:26.404Z,865.58
2022-12-24T00:12:53.024Z,852.42
2022-12-24T00:15:19.670Z,853.45
2022-12-24T00:17:46.259Z,855.33
2022-12-24T00:20:13.055Z,860.05
2022-12-24T00:22:39.656Z,857.17
2022-12-24T00:25:06.792Z,853.00
2022-12-24T00:27:33.419Z,855.90
2022-12-24T00:30:00.016Z,857.45
2022-12-24T05:31:53.059Z,848.33
2022-12-24T05:34:31.577Z,830.72
2022-12-24T05:37:03.453Z,841.60
2022-12-24T05:39:33.139Z,834.67
2022-12-24T05:41:59.872Z,840.67
2022-12-24T05:44:26.608Z,829.37
2022-12-24T05:46:53.271Z,833.17
2022-12-24T05:49:20.011Z,828.73
2022-12-24T05:51:46.784Z,833.15
2022-12-24T05:54:13.549Z,837.15
2022-12-24T05:56:40.259Z,838.20
2022-12-24T05:59:07.020Z,844.45
2022-12-24T06:01:33.851Z,835.95
2022-12-24T06:04:00.669Z,828.60
2022-12-24T06:06:28.724Z,829.40
2022-12-24T06:08:56.829Z,831.85
2022-12-24T06:11:26.261Z,841.20
2022-12-24T06:13:53.853Z,840.35
2022-12-24T06:16:22.220Z,839.05
2022-12-24T06:18:49.227Z,843.55
2022-12-24T06:21:16.173Z,834.30
2022-12-24T06:23:45.241Z,827.97
2022-12-24T06:26:14.451Z,829.63
2022-12-24T06:28:41.439Z,818.05
2022-12-24T06:31:12.833Z,814.25
2022-12-24T06:33:39.987Z,816.97
2022-12-24T06:36:14.988Z,817.03
2022-12-24T06:38:41.765Z,825.10
2022-12-24T06:41:09.022Z,823.20
2022-12-24T06:43:35.906Z,828.67
2022-12-24T06:46:04.179Z,819.15
2022-12-24T06:48:31.323Z,821.85
2022-12-24T06:50:58.019Z,821.85
2022-12-24T06:53:24.683Z,824.58
2022-12-24T06:55:51.438Z,826.25
2022-12-24T06:58:18.247Z,827.85
2022-12-24T07:00:44.989Z,821.25
2022-12-24T07:03:12.022Z,825.30
2022-12-24T07:05:38.677Z,820.58
2022-12-24T07:08:05.519Z,824.22
2022-12-24T07:10:32.135Z,816.20
2022-12-24T07:12:58.855Z,821.38
2022-12-24T07:15:25.474Z,817.63
2022-12-24T07:17:52.228Z,828.53
2022-12-24T07:20:18.967Z,835.30
2022-12-24T07:22:45.568Z,827.80
2022-12-24T07:25:12.474Z,841.40
2022-12-24T07:27:39.687Z,830.75
2022-12-24T07:30:07.449Z,827.55
2022-12-24T07:32:34.355Z,828.13
2022-12-24T07:35:01.074Z,836.50
2022-12-24T07:37:27.741Z,828.25
2022-12-24T07:39:54.491Z,832.85
2022-12-24T07:42:22.311Z,832.47
2022-12-24T07:44:48.928Z,831.80
2022-12-24T07:47:15.833Z,828.37
2022-12-24T07:49:42.874Z,824.87
2022-12-24T07:52:09.580Z,821.58
2022-12-24T07:54:36.340Z,825.00
2022-12-24T07:57:03.143Z,821.95
2022-12-24T07:59:29.821Z,823.87
2022-12-24T08:01:56.700Z,829.00
2022-12-24T08:04:23.547Z,842.63
2022-12-24T08:06:50.238Z,826.55
2022-12-24T08:09:17.019Z,835.03
2022-12-24T08:11:51.330Z,843.10
2022-12-24T08:14:19.102Z,835.47
2022-12-24T08:16:45.905Z,833.58
2022-12-24T08:19:12.606Z,834.90
2022-12-24T08:21:39.332Z,825.30
2022-12-24T08:24:06.568Z,836.63
2022-12-24T08:26:33.247Z,837.95
2022-12-24T08:28:59.987Z,840.60
2022-12-24T08:31:26.783Z,844.50
2022-12-24T08:33:53.602Z,830.13
2022-12-24T08:36:20.477Z,840.33
2022-12-24T08:38:47.141Z,834.58
2022-12-24T08:41:13.906Z,845.80
2022-12-24T08:43:40.613Z,845.20
2022-12-24T08:46:55.257Z,835.43
2022-12-24T08:49:22.113Z,814.70
2022-12-24T08:52:17.894Z,824.50
2022-12-24T08:54:44.596Z,815.80
2022-12-24T08:57:11.366Z,814.92
2022-12-24T08:59:38.094Z,816.78
2022-12-24T09:02:04.900Z,819.05
2022-12-24T09:05:27.857Z,819.47
2022-12-24T09:07:54.641Z,831.45
2022-12-24T09:10:21.831Z,831.30
2022-12-24T09:12:51.641Z,834.75
2022-12-24T09:15:19.018Z,835.80
2022-12-24T09:17:54.664Z,828.80
2022-12-24T09:20:21.429Z,822.33
2022-12-24T09:22:49.326Z,834.03
2022-12-24T09:25:16.098Z,824.45
2022-12-24T09:28:15.052Z,825.92
2022-12-24T09:30:41.731Z,832.60
2022-12-24T09:33:08.372Z,836.38
2022-12-24T09:35:38.218Z,822.95
2022-12-24T09:38:04.900Z,829.17
2022-12-24T09:40:37.977Z,841.67
2022-12-24T09:43:20.653Z,838.53
2022-12-24T09:46:18.434Z,841.97
2022-12-24T09:48:49.262Z,835.65
2022-12-24T09:51:41.171Z,842.83
2022-12-24T09:54:18.867Z,842.03
2022-12-24T09:56:47.813Z,846.40
2022-12-24T09:59:45.646Z,843.73
2022-12-24T10:02:15.844Z,842.33
2022-12-24T10:04:46.018Z,838.22
2022-12-24T10:07:18.889Z,837.92
2022-12-24T10:10:03.720Z,833.40
2022-12-24T10:12:53.082Z,830.80
2022-12-24T10:15:41.079Z,837.05
2022-12-24T10:18:07.685Z,829.90
2022-12-24T10:20:56.781Z,832.97
2022-12-24T10:23:26.364Z,831.47
2022-12-24T10:26:02.043Z,835.05
2022-12-24T10:28:44.014Z,840.30
2022-12-24T10:31:11.366Z,839.40
2022-12-24T10:33:44.660Z,837.20
2022-12-24T10:36:18.659Z,838.70
2022-12-24T10:38:46.306Z,844.90
2022-12-24T10:41:14.867Z,841.55
2022-12-24T10:43:43.508Z,842.57
2022-12-24T10:46:21.391Z,838.42
2022-12-24T10:49:29.241Z,838.80
2022-12-24T10:51:57.833Z,837.05
2022-12-24T10:54:28.053Z,839.20
2022-12-24T10:57:02.792Z,834.53
2022-12-24T10:59:30.967Z,841.30
2022-12-24T11:01:59.114Z,847.60
2022-12-24T11:04:28.880Z,843.37
2022-12-24T11:07:07.112Z,839.13
2022-12-24T11:09:36.974Z,836.17
2022-12-24T11:12:09.409Z,830.00
2022-12-24T11:14:40.078Z,829.30
2022-12-24T11:17:07.123Z,833.47
2022-12-24T11:19:36.861Z,831.90
2022-12-24T11:22:06.917Z,828.00
2022-12-24T11:24:49.695Z,831.28
2022-12-24T11:27:42.158Z,837.75
2022-12-24T11:30:23.537Z,828.67
2022-12-24T11:33:11.617Z,839.10
2022-12-24T11:35:47.757Z,832.83
2022-12-24T11:38:23.786Z,827.25
2022-12-24T11:40:59.152Z,829.50
2022-12-24T11:43:44.288Z,833.05
2022-12-24T11:46:34.515Z,837.30
2022-12-24T11:49:15.945Z,839.63
2022-12-24T11:52:12.110Z,832.88
2022-12-24T11:54:56.618Z,834.40
2022-12-24T11:57:28.378Z,834.60
2022-12-24T11:59:55.102Z,826.05
2022-12-24T12:02:39.745Z,820.30
2022-12-24T12:05:28.687Z,828.13
2022-12-24T12:08:05.859Z,825.45
2022-12-24T12:10:39.876Z,820.97
2022-12-24T12:13:16.325Z,826.65
2022-12-24T12:16:01.514Z,833.78
2022-12-24T12:18:36.083Z,825.70
2022-12-24T12:21:09.995Z,822.08
2022-12-24T12:24:01.598Z,825.65
2022-12-24T12:26:30.079Z,823.10
2022-12-24T12:29:02.376Z,820.22
2022-12-24T12:31:37.023Z,819.33
2022-12-24T12:34:21.826Z,821.85
2022-12-24T12:36:54.217Z,824.05
2022-12-24T12:39:21.047Z,824.70
2022-12-24T12:41:59.007Z,818.03
2022-12-24T12:44:34.708Z,826.47
2022-12-24T12:47:31.563Z,825.33
2022-12-24T12:50:07.299Z,819.00
2022-12-24T12:52:55.331Z,827.05
2022-12-24T12:55:28.096Z,828.58
2022-12-24T12:58:00.754Z,834.23
2022-12-24T13:00:36.047Z,838.10
2022-12-24T13:03:37.999Z,829.33
2022-12-24T13:06:13.761Z,843.15
2022-12-24T13:08:43.490Z,841.60
2022-12-24T13:11:47.831Z,845.73
2022-12-24T13:14:47.392Z,841.75
2022-12-24T13:17:41.519Z,833.40
2022-12-24T13:20:24.225Z,838.80
2022-12-24T13:22:57.357Z,842.85
2022-12-24T13:25:46.841Z,838.80
2022-12-24T14:02:26.105Z,826.38
2022-12-24T14:04:56.904Z,819.70
2022-12-24T14:07:23.643Z,823.05
2022-12-24T14:09:51.939Z,824.35
2022-12-24T14:12:45.481Z,818.85
2022-12-24T14:15:49.336Z,825.90
2022-12-24T14:18:21.304Z,824.60
2022-12-24T14:20:54.609Z,816.53
2022-12-24T14:23:42.521Z,825.70
2022-12-24T14:26:17.725Z,828.10
2022-12-24T14:28:55.607Z,823.30
2022-12-24T14:31:22.578Z,826.55
2022-12-24T14:33:49.404Z,819.03
2022-12-24T14:36:21.537Z,821.85
2022-12-24T14:38:48.602Z,834.80
2022-12-24T14:41:22.799Z,821.30
2022-12-24T14:44:05.137Z,833.90
2022-12-24T14:46:46.120Z,828.25
2022-12-24T14:52:30.759Z,832.20
2022-12-24T14:54:57.406Z,826.20
2022-12-24T14:57:26.301Z,829.90
2022-12-24T15:00:02.027Z,832.50
2022-12-24T15:05:25.895Z,823.80
2022-12-24T15:08:04.417Z,825.20
2022-12-24T15:10:37.172Z,828.20
2022-12-24T15:13:27.141Z,812.20
2022-12-24T15:15:55.523Z,820.50
2022-12-24T15:18:26.425Z,817.95
2022-12-24T15:21:01.830Z,804.80
2022-12-24T15:23:37.734Z,806.95
2022-12-24T15:28:49.361Z,813.90
2022-12-24T15:31:22.904Z,804.90
2022-12-24T15:33:53.184Z,824.10
2022-12-24T15:36:37.208Z,822.60
2022-12-24T15:39:13.901Z,821.90
2022-12-24T15:44:40.850Z,824.45
2022-12-24T15:47:15.555Z,824.80
2022-12-24T15:49:48.094Z,819.40
2022-12-24T15:52:18.135Z,818.30
2022-12-24T16:18:16.517Z,821.70
2022-12-24T16:20:48.861Z,814.70
2022-12-24T16:23:21.759Z,820.40
2022-12-24T16:25:48.588Z,814.75
2022-12-24T16:28:21.994Z,816.30
2022-12-24T16:30:49.428Z,820.70
2022-12-24T16:33:19.237Z,814.17
2022-12-24T16:35:46.934Z,816.40
2022-12-24T16:38:13.986Z,825.13
2022-12-24T16:40:41.727Z,829.10
2022-12-24T16:43:28.408Z,822.80
2022-12-24T16:46:01.480Z,820.15
